createdAt,value
2018-07-30T00:01:53.493Z,99929.21
2018-07-30T00:04:24.485Z,99935.26
2018-07-30T00:06:55.504Z,99929.06
2018-07-30T00:09:26.489Z,99931.00
2018-07-30T00:11:57.514Z,99935.28
2018-07-30T00:14:28.476Z,99935.77
2018-07-30T00:16:59.488Z,99931.77
2018-07-30T00:19:30.481Z,99934.24
2018-07-30T00:22:01.489Z,99936.35
2018-07-30T00:24:32.484Z,99934.75
2018-07-30T00:27:03.474Z,99936.35
2018-07-30T00:29:34.481Z,99941.74
2018-07-30T00:32:05.494Z,99941.02
2018-07-30T00:34:36.469Z,99939.48
2018-07-30T00:37:07.474Z,99948.59
2018-07-30T00:39:38.477Z,99949.55
2018-07-30T00:42:09.478Z,99950.50
2018-07-30T00:44:40.550Z,99954.94
2018-07-30T00:47:11.462Z,99955.37
2018-07-30T00:52:00.281Z,99958.28
2018-07-30T00:54:31.358Z,99959.52
2018-07-30T00:57:02.345Z,99960.45
2018-07-30T00:59:33.657Z,99962.61
2018-07-30T01:02:04.537Z,99960.02
2018-07-30T01:04:35.461Z,99958.79
2018-07-30T01:07:06.493Z,99963.73
2018-07-30T01:09:37.500Z,99965.84
2018-07-30T01:12:08.544Z,99967.37
2018-07-30T01:14:39.481Z,99965.84
2018-07-30T01:17:10.510Z,99968.60
2018-07-30T01:19:41.484Z,99970.70
2018-07-30T01:22:12.513Z,99974.66
2018-07-30T01:24:43.476Z,99969.89
2018-07-30T01:27:14.489Z,99974.75
2018-07-30T01:29:45.505Z,99978.78
2018-07-30T01:32:16.482Z,99972.06
2018-07-30T01:34:47.520Z,99975.66
2018-07-30T01:37:18.567Z,99973.91
2018-07-30T01:39:49.495Z,99977.34
2018-07-30T01:42:20.709Z,99970.09
2018-07-30T01:44:51.593Z,99971.77
2018-07-30T01:47:22.501Z,99971.52
2018-07-30T01:49:53.482Z,99979.39
2018-07-30T01:52:24.480Z,99974.53
2018-07-30T01:54:55.580Z,99974.52
2018-07-30T01:57:26.483Z,99976.80
2018-07-30T02:00:33.480Z,99983.95
2018-07-30T02:03:04.537Z,99989.87
2018-07-30T02:05:35.467Z,99989.45
2018-07-30T02:08:06.610Z,99988.21
2018-07-30T02:10:37.509Z,99991.39
2018-07-30T02:13:08.561Z,99999.18
2018-07-30T02:15:39.498Z,99996.06
2018-07-30T02:18:10.517Z,100001.03
2018-07-30T02:20:41.561Z,99991.97
2018-07-30T02:23:12.549Z,100000.52
2018-07-30T02:25:43.468Z,99994.66
2018-07-30T02:28:14.437Z,99996.80
2018-07-30T02:30:45.472Z,99997.84
2018-07-30T02:33:16.597Z,99992.34
2018-07-30T02:35:47.474Z,100001.25
2018-07-30T02:38:18.507Z,99995.23
2018-07-30T02:40:49.452Z,99996.27
2018-07-30T02:43:20.527Z,99995.77
2018-07-30T02:45:51.644Z,99997.60
2018-07-30T02:48:22.502Z,99997.92
2018-07-30T02:50:53.480Z,99995.97
2018-07-30T02:53:24.437Z,100001.25
2018-07-30T02:55:55.405Z,100010.82
2018-07-30T02:58:26.437Z,100005.61
2018-07-30T03:00:57.464Z,100007.50
2018-07-30T03:03:28.442Z,100006.58
2018-07-30T03:05:59.445Z,100008.05
2018-07-30T03:08:30.509Z,100009.05
2018-07-30T03:11:01.481Z,100001.28
2018-07-30T03:13:32.490Z,100001.88
2018-07-30T03:16:03.511Z,100007.72
2018-07-30T03:18:34.460Z,100006.11
2018-07-30T03:21:05.450Z,100004.27
2018-07-30T03:23:36.549Z,100004.83
2018-07-30T03:26:07.480Z,100005.08
2018-07-30T03:28:38.575Z,100004.83
2018-07-30T03:31:09.562Z,100006.16
2018-07-30T03:33:40.543Z,100015.97
2018-07-30T03:36:11.500Z,100011.23
2018-07-30T03:38:42.515Z,100012.09
2018-07-30T03:41:13.517Z,100019.65
2018-07-30T03:43:44.506Z,100021.46
2018-07-30T03:46:15.484Z,100020.99
2018-07-30T03:48:46.496Z,100022.09
2018-07-30T03:51:17.519Z,100015.61
2018-07-30T03:53:48.460Z,100024.45
2018-07-30T03:56:19.518Z,100022.56
2018-07-30T03:58:50.485Z,100026.44
2018-07-30T04:01:21.486Z,100023.87
2018-07-30T04:03:52.516Z,100030.36
2018-07-30T04:06:23.505Z,100021.84
2018-07-30T04:08:54.597Z,100027.20
2018-07-30T04:11:25.690Z,100030.22
2018-07-30T04:13:57.017Z,100033.84
2018-07-30T04:16:28.403Z,100029.82
2018-07-30T04:18:59.481Z,100033.06
2018-07-30T04:21:30.475Z,100034.42
2018-07-30T04:24:01.468Z,100037.73
2018-07-30T04:26:32.499Z,100038.39
2018-07-30T04:29:03.457Z,100039.47
2018-07-30T04:31:34.425Z,100039.78
2018-07-30T04:34:05.749Z,100041.69
2018-07-30T04:36:36.903Z,100045.44
2018-07-30T04:39:13.596Z,100041.20
2018-07-30T04:41:45.334Z,100051.01
2018-07-30T04:44:16.422Z,100048.69
2018-07-30T04:46:47.503Z,100052.89
2018-07-30T04:49:18.600Z,100052.39
2018-07-30T04:51:49.533Z,100062.12
2018-07-30T04:54:20.485Z,100055.56
2018-07-30T04:56:51.496Z,100056.51
2018-07-30T04:59:22.480Z,100055.10
2018-07-30T05:01:53.459Z,100056.48
2018-07-30T05:04:24.462Z,100058.77
2018-07-30T05:06:55.448Z,100053.80
2018-07-30T05:09:26.504Z,100052.94
2018-07-30T05:11:57.499Z,100055.03
2018-07-30T05:14:28.423Z,100050.91
2018-07-30T05:17:00.034Z,100049.37
2018-07-30T05:19:31.422Z,100042.58
2018-07-30T05:22:02.478Z,100040.47
2018-07-30T05:24:33.828Z,100048.71
2018-07-30T05:27:04.583Z,100049.59
2018-07-30T05:29:35.549Z,100046.77
2018-07-30T05:32:06.495Z,100053.64
2018-07-30T05:34:37.505Z,100051.83
2018-07-30T05:37:08.696Z,100048.48
2018-07-30T05:39:39.569Z,100053.02
2018-07-30T05:42:10.505Z,100054.36
2018-07-30T05:44:41.472Z,100052.07
2018-07-30T05:47:12.449Z,100047.27
2018-07-30T05:49:43.478Z,100048.20
2018-07-30T05:52:14.508Z,100043.87
2018-07-30T05:54:45.513Z,100048.90
2018-07-30T05:57:16.456Z,100048.28
2018-07-30T05:59:47.463Z,100048.28
2018-07-30T06:02:18.461Z,100055.06
2018-07-30T06:04:49.463Z,100059.20
2018-07-30T06:07:24.184Z,100060.77
2018-07-30T06:09:55.382Z,100058.27
2018-07-30T06:12:26.526Z,100068.92
2018-07-30T06:14:57.494Z,100065.02
2018-07-30T06:17:28.461Z,100058.21
2018-07-30T06:19:59.615Z,100070.02
2018-07-30T06:22:30.529Z,100075.23
2018-07-30T06:25:01.493Z,100081.30
2018-07-30T06:27:32.523Z,100081.65
2018-07-30T06:30:05.561Z,100089.34
2018-07-30T06:32:36.506Z,100087.78
2018-07-30T06:35:08.299Z,100093.09
2018-07-30T06:37:39.578Z,100088.37
2018-07-30T06:40:10.477Z,100086.84
2018-07-30T06:42:41.468Z,100091.12
2018-07-30T06:45:12.473Z,100087.27
2018-07-30T06:47:43.469Z,100090.05
2018-07-30T06:50:14.481Z,100094.78
2018-07-30T06:52:45.455Z,100089.84
2018-07-30T06:55:16.479Z,100097.39
2018-07-30T06:57:47.505Z,100096.56
2018-07-30T07:00:18.457Z,100093.84
2018-07-30T07:02:50.001Z,100094.67
2018-07-30T07:05:21.204Z,100090.11
2018-07-30T07:07:52.369Z,100096.61
2018-07-30T07:10:23.378Z,100101.16
2018-07-30T07:12:54.485Z,100091.59
2018-07-30T07:15:25.488Z,100098.41
2018-07-30T07:17:56.571Z,100097.08
2018-07-30T07:20:27.572Z,100093.61
2018-07-30T07:22:58.506Z,100096.83
2018-07-30T07:25:29.461Z,100092.92
2018-07-30T07:28:00.477Z,100095.16
2018-07-30T07:30:31.522Z,100098.05
2018-07-30T07:33:02.489Z,100092.77
2018-07-30T07:35:33.461Z,100091.84
2018-07-30T07:38:04.509Z,100093.96
2018-07-30T07:40:35.455Z,100087.17
2018-07-30T07:43:06.529Z,100095.52
2018-07-30T07:45:37.442Z,100095.13
2018-07-30T07:48:08.515Z,100091.58
2018-07-30T07:50:39.675Z,100098.44
2018-07-30T07:53:10.499Z,100100.20
2018-07-30T07:55:41.481Z,100104.30
2018-07-30T07:58:12.490Z,100106.57
2018-07-30T08:00:43.481Z,100100.34
2018-07-30T08:03:14.501Z,100099.48
2018-07-30T08:05:45.518Z,100100.17
2018-07-30T08:08:16.489Z,100096.28
2018-07-30T08:10:47.588Z,100094.17
2018-07-30T08:13:18.526Z,100098.28
2018-07-30T08:15:49.477Z,100098.28
2018-07-30T08:18:20.489Z,100095.91
2018-07-30T08:20:51.513Z,100098.00
2018-07-30T08:23:22.523Z,100092.02
2018-07-30T08:25:53.583Z,100096.50
2018-07-30T08:28:24.524Z,100092.33
2018-07-30T08:30:55.714Z,100093.22
2018-07-30T08:33:26.561Z,100089.22
2018-07-30T08:35:57.575Z,100095.09
2018-07-30T08:38:28.496Z,100088.61
2018-07-30T08:40:59.440Z,100102.44
2018-07-30T08:43:30.485Z,100092.73
2018-07-30T08:46:01.498Z,100091.36
2018-07-30T08:48:32.545Z,100097.00
2018-07-30T08:51:03.544Z,100101.39
2018-07-30T08:53:34.497Z,100098.16
2018-07-30T08:56:05.510Z,100097.64
2018-07-30T08:58:36.575Z,100102.66
2018-07-30T09:01:07.596Z,100100.91
2018-07-30T09:03:38.610Z,100099.40
2018-07-30T09:06:09.551Z,100098.73
2018-07-30T09:08:40.498Z,100097.74
2018-07-30T09:11:11.506Z,100089.73
2018-07-30T09:13:42.554Z,100094.95
2018-07-30T09:16:13.527Z,100090.23
2018-07-30T09:18:44.493Z,100089.19
2018-07-30T09:21:15.465Z,100088.51
2018-07-30T09:23:46.496Z,100089.42
2018-07-30T09:26:17.509Z,100087.67
2018-07-30T09:28:48.472Z,100089.33
2018-07-30T09:31:19.500Z,100083.95
2018-07-30T09:33:50.483Z,100086.23
2018-07-30T09:36:26.805Z,100084.96
2018-07-30T09:38:57.441Z,100085.98
2018-07-30T09:41:28.481Z,100078.91
2018-07-30T09:43:59.492Z,100079.85
2018-07-30T09:46:30.461Z,100079.66
2018-07-30T09:49:01.501Z,100076.55
2018-07-30T09:51:32.591Z,100083.27
2018-07-30T09:54:03.525Z,100079.81
2018-07-30T09:56:34.678Z,100078.02
2018-07-30T09:59:05.605Z,100073.77
2018-07-30T10:01:36.481Z,100072.34
2018-07-30T10:04:07.462Z,100073.55
2018-07-30T10:06:38.464Z,100073.88
2018-07-30T10:09:12.457Z,100071.45
2018-07-30T10:11:43.470Z,100063.48
2018-07-30T10:14:14.701Z,100062.92
2018-07-30T10:16:45.535Z,100057.23
2018-07-30T10:19:16.502Z,100061.31
2018-07-30T10:21:49.451Z,100056.36
2018-07-30T10:24:20.467Z,100056.08
2018-07-30T10:26:51.492Z,100056.51
2018-07-30T10:29:22.517Z,100054.47
2018-07-30T10:31:53.504Z,100061.52
2018-07-30T10:34:24.525Z,100054.00
2018-07-30T10:36:55.502Z,100050.69
2018-07-30T10:39:26.464Z,100041.80
2018-07-30T10:41:57.538Z,100036.25
2018-07-30T10:44:28.493Z,100041.39
2018-07-30T10:46:59.469Z,100037.58
2018-07-30T10:49:30.511Z,100036.34
2018-07-30T10:52:01.492Z,100031.14
2018-07-30T10:54:32.489Z,100035.00
2018-07-30T10:57:03.505Z,100030.28
2018-07-30T10:59:34.815Z,100023.45
2018-07-30T11:02:05.279Z,100020.53
2018-07-30T11:04:39.781Z,100019.86
2018-07-30T11:07:10.280Z,100015.20
2018-07-30T11:09:41.422Z,100012.56
2018-07-30T11:12:12.493Z,100014.43
2018-07-30T11:14:43.543Z,100021.25
2018-07-30T11:17:14.530Z,100015.77
2018-07-30T11:19:45.512Z,100013.98
2018-07-30T11:22:16.468Z,100013.78
2018-07-30T11:24:47.485Z,100014.27
2018-07-30T11:27:18.496Z,100021.90
2018-07-30T11:29:49.491Z,100013.33
2018-07-30T11:32:22.547Z,100010.50
2018-07-30T11:34:55.520Z,100013.45
2018-07-30T11:37:26.525Z,100008.30
2018-07-30T11:39:57.712Z,100014.45
2018-07-30T11:42:28.541Z,100003.37
2018-07-30T11:44:59.508Z,100000.86
2018-07-30T11:47:30.524Z,99999.70
2018-07-30T11:50:02.047Z,99993.66
2018-07-30T11:52:33.297Z,99998.38
2018-07-30T11:55:04.391Z,99994.28
2018-07-30T11:57:35.476Z,99988.02
2018-07-30T12:00:06.521Z,99991.30
2018-07-30T12:02:37.525Z,99989.90
2018-07-30T12:05:08.491Z,99981.30
2018-07-30T12:07:39.468Z,99982.99
2018-07-30T12:10:10.522Z,99978.37
2018-07-30T12:12:41.461Z,99979.86
2018-07-30T12:15:12.295Z,99970.41
2018-07-30T12:17:43.350Z,99975.07
2018-07-30T12:20:14.417Z,99963.91
2018-07-30T12:22:45.481Z,99975.31
2018-07-30T12:25:16.508Z,99973.93
2018-07-30T12:27:47.469Z,99971.27
2018-07-30T12:30:18.558Z,99979.16
2018-07-30T12:32:49.518Z,99968.70
2018-07-30T12:35:20.529Z,99964.55
2018-07-30T12:37:51.601Z,99971.30
2018-07-30T12:40:22.489Z,99965.88
2018-07-30T12:42:53.457Z,99958.47
2018-07-30T12:45:29.625Z,99958.88
2018-07-30T12:48:00.549Z,99960.59
2018-07-30T12:50:31.542Z,99958.38
2018-07-30T12:53:02.432Z,99954.08
2018-07-30T12:55:33.464Z,99950.36
2018-07-30T12:58:04.618Z,99950.85
2018-07-30T13:00:35.517Z,99949.20
2018-07-30T13:03:06.527Z,99954.81
2018-07-30T13:05:37.505Z,99944.23
2018-07-30T13:08:08.516Z,99943.95
2018-07-30T13:10:39.512Z,99942.11
2018-07-30T13:13:10.534Z,99933.84
2018-07-30T13:15:41.473Z,99932.08
2018-07-30T13:18:12.447Z,99930.66
2018-07-30T13:20:43.578Z,99931.80
2018-07-30T13:23:14.499Z,99933.14
2018-07-30T13:25:45.475Z,99929.80
2018-07-30T13:28:16.484Z,99925.73
2018-07-30T13:30:47.527Z,99926.84
2018-07-30T13:33:18.503Z,99919.08
2018-07-30T13:35:49.605Z,99913.17
2018-07-30T13:38:20.501Z,99922.18
2018-07-30T13:40:51.702Z,99916.98
2018-07-30T13:43:22.565Z,99920.69
2018-07-30T13:45:53.505Z,99914.53
2018-07-30T13:48:24.487Z,99918.70
2018-07-30T13:50:55.493Z,99916.41
2018-07-30T13:53:26.579Z,99916.17
2018-07-30T13:55:57.557Z,99916.94
2018-07-30T13:58:28.534Z,99921.78
2018-07-30T14:01:00.031Z,99911.72
2018-07-30T14:03:31.367Z,99916.60
2018-07-30T14:06:02.406Z,99906.09
2018-07-30T14:08:33.466Z,99909.92
2018-07-30T14:11:04.569Z,99905.55
2018-07-30T14:13:35.531Z,99907.73
2018-07-30T14:16:06.520Z,99902.80
2018-07-30T14:18:37.611Z,99899.18
2018-07-30T14:21:08.533Z,99903.25
2018-07-30T14:23:39.594Z,99907.00
2018-07-30T14:26:10.595Z,99899.77
2018-07-30T14:28:41.635Z,99902.60
2018-07-30T14:31:12.617Z,99896.44
2018-07-30T14:33:43.600Z,99883.97
2018-07-30T14:36:14.733Z,99894.13
2018-07-30T14:38:46.514Z,99882.99
2018-07-30T14:41:17.549Z,99879.97
2018-07-30T14:43:48.505Z,99889.70
2018-07-30T14:46:19.550Z,99880.92
2018-07-30T14:48:50.503Z,99883.55
2018-07-30T14:51:21.551Z,99885.15
2018-07-30T14:53:52.539Z,99877.81
2018-07-30T14:56:24.029Z,99884.60
2018-07-30T14:58:55.403Z,99881.31
2018-07-30T15:01:26.526Z,99881.53
2018-07-30T15:03:57.647Z,99876.73
2018-07-30T15:06:28.609Z,99874.52
2018-07-30T15:09:00.489Z,99873.34
2018-07-30T15:11:31.574Z,99870.38
2018-07-30T15:14:02.600Z,99873.72
2018-07-30T15:16:34.731Z,99872.62
2018-07-30T15:19:06.254Z,99870.57
2018-07-30T15:21:37.434Z,99868.83
2018-07-30T15:24:08.557Z,99870.63
2018-07-30T15:26:39.549Z,99866.09
2018-07-30T15:29:10.558Z,99865.78
2018-07-30T15:31:41.509Z,99866.38
2018-07-30T15:34:12.524Z,99861.89
2018-07-30T15:36:43.582Z,99850.35
2018-07-30T15:39:14.544Z,99857.97
2018-07-30T15:41:45.530Z,99856.67
2018-07-30T15:44:16.591Z,99847.18
2018-07-30T15:46:47.563Z,99846.39
2018-07-30T15:52:09.579Z,99857.50
2018-07-30T15:54:40.541Z,99856.91
2018-07-30T15:57:11.554Z,99861.91
2018-07-30T15:59:42.522Z,99855.16
2018-07-30T16:02:13.501Z,99860.17
2018-07-30T16:04:44.497Z,99852.30
2018-07-30T16:07:15.603Z,99851.27
2018-07-30T16:09:46.500Z,99848.05
2018-07-30T16:12:17.483Z,99848.27
2018-07-30T16:14:48.483Z,99853.16
2018-07-30T16:17:39.564Z,99850.55
2018-07-30T16:20:11.218Z,99862.23
2018-07-30T16:22:42.400Z,99849.92
2018-07-30T16:25:13.445Z,99847.78
2018-07-30T16:27:44.481Z,99853.39
2018-07-30T16:30:15.509Z,99850.20
2018-07-30T16:32:46.509Z,99854.89
2018-07-30T16:35:17.533Z,99854.59
2018-07-30T16:37:48.473Z,99859.39
2018-07-30T16:40:19.565Z,99852.07
2018-07-30T16:42:50.525Z,99854.50
2018-07-30T16:45:21.465Z,99849.27
2018-07-30T16:47:52.509Z,99852.00
2018-07-30T16:50:23.505Z,99859.92
2018-07-30T16:52:54.517Z,99851.47
2018-07-30T16:55:25.484Z,99850.92
2018-07-30T16:57:56.487Z,99858.25
2018-07-30T17:00:27.450Z,99856.96
2018-07-30T17:02:58.662Z,99860.01
2018-07-30T17:05:29.546Z,99860.07
2018-07-30T17:08:00.489Z,99858.20
2018-07-30T17:10:31.500Z,99859.40
2018-07-30T17:13:02.495Z,99857.68
2018-07-30T17:15:33.504Z,99859.59
2018-07-30T17:18:04.586Z,99864.37
2018-07-30T17:20:35.556Z,99862.16
2018-07-30T17:23:06.629Z,99857.88
2018-07-30T17:25:37.488Z,99853.58
2018-07-30T17:28:08.500Z,99861.11
2018-07-30T17:30:39.460Z,99868.69
2018-07-30T17:33:10.509Z,99868.92
2018-07-30T17:35:41.469Z,99863.66
2018-07-30T17:38:12.553Z,99865.77
2018-07-30T17:40:43.477Z,99870.73
2018-07-30T17:43:14.509Z,99877.00
2018-07-30T17:45:45.557Z,99868.03
2018-07-30T17:48:16.555Z,99874.22
2018-07-30T17:50:47.476Z,99873.38
2018-07-30T17:53:18.508Z,99872.98
2018-07-30T17:55:49.526Z,99867.41
2018-07-30T17:58:20.511Z,99872.44
2018-07-30T18:00:52.273Z,99870.82
2018-07-30T18:03:23.381Z,99868.08
2018-07-30T18:05:54.505Z,99870.58
2018-07-30T18:08:25.468Z,99869.02
2018-07-30T18:10:56.582Z,99874.84
2018-07-30T18:13:27.602Z,99873.41
2018-07-30T18:15:58.526Z,99883.34
2018-07-30T18:18:29.481Z,99887.14
2018-07-30T18:21:00.513Z,99877.58
2018-07-30T18:23:31.521Z,99873.75
2018-07-30T18:26:02.521Z,99882.86
2018-07-30T18:28:33.471Z,99887.20
2018-07-30T18:31:04.451Z,99896.27
2018-07-30T18:33:35.634Z,99886.44
2018-07-30T18:36:06.488Z,99882.34
2018-07-30T18:38:37.470Z,99886.69
2018-07-30T18:41:08.850Z,99891.37
2018-07-30T18:43:39.295Z,99885.88
2018-07-30T18:46:17.218Z,99886.45
2018-07-30T18:48:48.369Z,99891.38
2018-07-30T18:51:19.412Z,99891.65
2018-07-30T18:53:50.497Z,99896.56
2018-07-30T18:56:21.488Z,99899.03
2018-07-30T18:58:52.477Z,99895.21
2018-07-30T19:01:23.440Z,99898.22
2018-07-30T19:03:54.497Z,99903.97
2018-07-30T19:06:25.482Z,99908.34
2018-07-30T19:08:56.462Z,99909.17
2018-07-30T19:11:27.452Z,99911.07
2018-07-30T19:13:58.561Z,99914.06
2018-07-30T19:16:29.519Z,99918.70
2018-07-30T19:19:00.517Z,99921.70
2018-07-30T19:21:31.508Z,99931.23
2018-07-30T19:24:02.628Z,99933.70
2018-07-30T19:26:33.522Z,99930.92
2018-07-30T19:29:04.462Z,99931.19
2018-07-30T19:31:35.456Z,99932.23
2018-07-30T19:34:07.028Z,99929.42
2018-07-30T19:36:38.236Z,99941.70
2018-07-30T19:39:12.850Z,99939.53
2018-07-30T19:41:43.624Z,99942.20
2018-07-30T19:44:14.565Z,99949.54
2018-07-30T19:46:45.498Z,99946.23
2018-07-30T19:49:16.474Z,99951.66
2018-07-30T19:51:47.595Z,99949.99
2018-07-30T19:54:18.494Z,99954.89
2018-07-30T19:56:49.502Z,99953.95
2018-07-30T19:59:20.489Z,99960.00
2018-07-30T20:01:51.661Z,99960.23
2018-07-30T20:04:22.581Z,99964.84
2018-07-30T20:06:53.507Z,99961.84
2018-07-30T20:09:24.516Z,99963.66
2018-07-30T20:11:55.523Z,99962.30
2018-07-30T20:14:26.493Z,99962.27
2018-07-30T20:16:57.512Z,99961.37
2018-07-30T20:19:28.513Z,99963.80
2018-07-30T20:21:59.485Z,99963.47
2018-07-30T20:24:30.555Z,99966.66
2018-07-30T20:27:01.529Z,99971.80
2018-07-30T20:29:32.506Z,99967.34
2018-07-30T20:32:03.507Z,99970.34
2018-07-30T20:34:34.505Z,99971.39
2018-07-30T20:37:05.518Z,99967.76
2018-07-30T20:39:36.552Z,99967.80
2018-07-30T20:42:08.381Z,99966.62
2018-07-30T20:44:39.552Z,99970.05
2018-07-30T20:47:10.565Z,99971.41
2018-07-30T20:49:41.536Z,99978.77
2018-07-30T20:52:12.533Z,99980.08
2018-07-30T20:54:43.503Z,99978.06
2018-07-30T20:57:14.500Z,99980.22
2018-07-30T20:59:45.638Z,99976.39
2018-07-30T21:02:16.539Z,99976.66
2018-07-30T21:04:47.564Z,99978.23
2018-07-30T21:07:18.565Z,99982.84
2018-07-30T21:09:49.537Z,99981.13
2018-07-30T21:12:20.500Z,99981.64
2018-07-30T21:14:51.582Z,99983.18
2018-07-30T21:17:22.591Z,99980.71
2018-07-30T21:19:53.614Z,99978.20
2018-07-30T21:22:24.592Z,99984.85
2018-07-30T21:24:55.606Z,99984.49
2018-07-30T21:27:27.561Z,99983.30
2018-07-30T21:29:59.837Z,99979.68
2018-07-30T21:32:30.555Z,99981.78
2018-07-30T21:35:01.538Z,99981.01
2018-07-30T21:37:32.502Z,99983.80
2018-07-30T21:40:03.521Z,99978.63
2018-07-30T21:42:34.518Z,99979.53
2018-07-30T21:45:05.512Z,99980.70
2018-07-30T21:47:36.662Z,99985.63
2018-07-30T21:50:08.204Z,99982.27
2018-07-30T21:52:39.378Z,99990.88
2018-07-30T21:55:10.501Z,99993.16
2018-07-30T21:57:42.488Z,99992.33
2018-07-30T22:00:22.387Z,99990.48
2018-07-30T22:02:55.403Z,99987.84
2018-07-30T22:05:26.659Z,99985.66
2018-07-30T22:07:57.561Z,99983.30
2018-07-30T22:10:28.536Z,99987.91
2018-07-30T22:12:59.526Z,99995.53
2018-07-30T22:15:30.487Z,99992.20
2018-07-30T22:18:01.483Z,99996.59
2018-07-30T22:20:32.483Z,99991.02
2018-07-30T22:23:03.532Z,99991.98
2018-07-30T22:25:34.517Z,99996.13
2018-07-30T22:28:05.687Z,99991.47
2018-07-30T22:30:36.702Z,99998.26
2018-07-30T22:33:07.553Z,99992.59
2018-07-30T22:35:38.505Z,99991.50
2018-07-30T22:38:09.545Z,99990.17
2018-07-30T22:40:40.506Z,99992.12
2018-07-30T22:43:12.009Z,99996.72
2018-07-30T22:45:43.263Z,99995.36
2018-07-30T22:48:14.458Z,99995.42
2018-07-30T22:50:45.487Z,99993.97
2018-07-30T22:56:02.514Z,99991.09
2018-07-30T22:58:33.474Z,99993.09
2018-07-30T23:01:04.522Z,99987.84
2018-07-30T23:03:35.469Z,99998.84
2018-07-30T23:06:08.245Z,99996.89
2018-07-30T23:08:39.401Z,99995.36
2018-07-30T23:11:10.490Z,99988.23
2018-07-30T23:13:41.486Z,99995.12
2018-07-30T23:16:12.546Z,99993.41
2018-07-30T23:18:43.538Z,99994.31
2018-07-30T23:21:14.525Z,99994.86
2018-07-30T23:23:45.488Z,99993.58
2018-07-30T23:26:16.477Z,99989.87
2018-07-30T23:28:47.446Z,99995.73
2018-07-30T23:31:18.471Z,99989.69
2018-07-30T23:33:49.468Z,99982.05
2018-07-30T23:36:20.489Z,99989.87
2018-07-30T23:38:51.493Z,99985.80
2018-07-30T23:41:22.485Z,99986.67
2018-07-30T23:43:53.466Z,99980.88
2018-07-30T23:46:24.568Z,99983.47
2018-07-30T23:48:55.732Z,99982.88
2018-07-30T23:51:26.607Z,99983.05
2018-07-30T23:53:57.624Z,99978.19
2018-07-30T23:56:28.692Z,99977.47
2018-07-30T23:59:01.042Z,99977.91
